sensor_id;sensor_type;location;lat;lon;timestamp;P1;durP1;ratioP1;P2;durP2;ratioP2
70457;SDS011;57919;56.194;95.716;2023-03-25T00:06:54;22.65;;;7.70;;
70457;SDS011;57919;56.194;95.716;2023-03-25T00:16:57;18.07;;;7.77;;
70457;SDS011;57919;56.194;95.716;2023-03-25T00:26:58;21.37;;;6.60;;
70457;SDS011;57919;56.194;95.716;2023-03-25T00:37:00;16.50;;;5.57;;
70457;SDS011;57919;56.194;95.716;2023-03-25T00:47:02;19.10;;;5.80;;
70457;SDS011;57919;56.194;95.716;2023-03-25T00:57:04;9.17;;;3.90;;
70457;SDS011;57919;56.194;95.716;2023-03-25T01:07:06;13.68;;;5.18;;
70457;SDS011;57919;56.194;95.716;2023-03-25T01:17:09;24.40;;;7.80;;
70457;SDS011;57919;56.194;95.716;2023-03-25T01:27:11;8.93;;;4.53;;
70457;SDS011;57919;56.194;95.716;2023-03-25T01:37:13;10.40;;;3.60;;
70457;SDS011;57919;56.194;95.716;2023-03-25T01:47:16;12.55;;;4.38;;
70457;SDS011;57919;56.194;95.716;2023-03-25T01:57:18;17.57;;;5.87;;
70457;SDS011;57919;56.194;95.716;2023-03-25T02:07:22;23.43;;;11.40;;
70457;SDS011;57919;56.194;95.716;2023-03-25T02:48:05;20.25;;;8.35;;
70457;SDS011;57919;56.194;95.716;2023-03-25T02:58:11;24.80;;;6.60;;
70457;SDS011;57919;56.194;95.716;2023-03-25T03:29:01;33.47;;;11.33;;
70457;SDS011;57919;56.194;95.716;2023-03-25T03:39:16;28.67;;;6.10;;
70457;SDS011;57919;56.194;95.716;2023-03-25T03:49:39;53.50;;;16.90;;
70457;SDS011;57919;56.194;95.716;2023-03-25T04:20:18;13.77;;;5.40;;
70457;SDS011;57919;56.194;95.716;2023-03-25T04:30:27;18.80;;;8.47;;
70457;SDS011;57919;56.194;95.716;2023-03-25T04:40:31;6.40;;;2.13;;
70457;SDS011;57919;56.194;95.716;2023-03-25T04:50:33;10.55;;;4.43;;
70457;SDS011;57919;56.194;95.716;2023-03-25T05:00:35;28.53;;;11.80;;
70457;SDS011;57919;56.194;95.716;2023-03-25T05:10:37;38.30;;;14.30;;
70457;SDS011;57919;56.194;95.716;2023-03-25T05:20:43;26.33;;;8.98;;
70457;SDS011;57919;56.194;95.716;2023-03-25T05:30:47;7.57;;;2.57;;
70457;SDS011;57919;56.194;95.716;2023-03-25T05:40:50;4.60;;;1.43;;
70457;SDS011;57919;56.194;95.716;2023-03-25T05:50:52;5.77;;;2.10;;
70457;SDS011;57919;56.194;95.716;2023-03-25T06:00:57;13.03;;;3.90;;
70457;SDS011;57919;56.194;95.716;2023-03-25T06:11:02;16.13;;;6.07;;
70457;SDS011;57919;56.194;95.716;2023-03-25T06:21:05;10.73;;;3.57;;
70457;SDS011;57919;56.194;95.716;2023-03-25T06:31:13;7.47;;;2.00;;
70457;SDS011;57919;56.194;95.716;2023-03-25T06:41:20;11.88;;;2.33;;
70457;SDS011;57919;56.194;95.716;2023-03-25T06:51:42;7.50;;;2.47;;
70457;SDS011;57919;56.194;95.716;2023-03-25T07:01:44;7.70;;;1.50;;
70457;SDS011;57919;56.194;95.716;2023-03-25T07:11:46;6.80;;;1.97;;
70457;SDS011;57919;56.194;95.716;2023-03-25T07:21:48;14.63;;;3.93;;
70457;SDS011;57919;56.194;95.716;2023-03-25T07:31:50;10.23;;;3.45;;
70457;SDS011;57919;56.194;95.716;2023-03-25T07:41:52;3.90;;;1.30;;
70457;SDS011;57919;56.194;95.716;2023-03-25T07:52:03;7.80;;;2.10;;
70457;SDS011;57919;56.194;95.716;2023-03-25T08:02:05;7.05;;;1.90;;
70457;SDS011;57919;56.194;95.716;2023-03-25T08:12:07;5.97;;;1.87;;
70457;SDS011;57919;56.194;95.716;2023-03-25T08:22:09;13.97;;;3.17;;
70457;SDS011;57919;56.194;95.716;2023-03-25T08:32:12;6.83;;;2.20;;
70457;SDS011;57919;56.194;95.716;2023-03-25T08:42:14;7.40;;;2.23;;
70457;SDS011;57919;56.194;95.716;2023-03-25T08:52:16;10.68;;;3.47;;
70457;SDS011;57919;56.194;95.716;2023-03-25T09:02:18;5.07;;;1.53;;
70457;SDS011;57919;56.194;95.716;2023-03-25T09:12:20;7.43;;;2.30;;
70457;SDS011;57919;56.194;95.716;2023-03-25T09:22:22;4.88;;;1.40;;
70457;SDS011;57919;56.194;95.716;2023-03-25T09:32:25;8.30;;;1.53;;
70457;SDS011;57919;56.194;95.716;2023-03-25T09:52:44;5.40;;;1.90;;
70457;SDS011;57919;56.194;95.716;2023-03-25T10:13:33;11.73;;;4.23;;
70457;SDS011;57919;56.194;95.716;2023-03-25T10:34:33;26.27;;;11.30;;
70457;SDS011;57919;56.194;95.716;2023-03-25T10:44:40;91.03;;;26.03;;
70457;SDS011;57919;56.194;95.716;2023-03-25T10:54:44;29.63;;;16.58;;
70457;SDS011;57919;56.194;95.716;2023-03-25T11:04:52;19.27;;;7.50;;
70457;SDS011;57919;56.194;95.716;2023-03-25T11:14:57;61.40;;;26.23;;
70457;SDS011;57919;56.194;95.716;2023-03-25T11:25:06;55.83;;;24.63;;
70457;SDS011;57919;56.194;95.716;2023-03-25T11:35:23;19.37;;;7.67;;
70457;SDS011;57919;56.194;95.716;2023-03-25T11:45:31;22.65;;;8.75;;
70457;SDS011;57919;56.194;95.716;2023-03-25T11:55:42;23.57;;;9.83;;
70457;SDS011;57919;56.194;95.716;2023-03-25T12:05:56;26.80;;;11.20;;
70457;SDS011;57919;56.194;95.716;2023-03-25T12:16:05;24.77;;;11.27;;
70457;SDS011;57919;56.194;95.716;2023-03-25T12:26:13;34.73;;;10.77;;
70457;SDS011;57919;56.194;95.716;2023-03-25T13:07:35;26.80;;;9.10;;
70457;SDS011;57919;56.194;95.716;2023-03-25T13:17:50;51.38;;;16.42;;
70457;SDS011;57919;56.194;95.716;2023-03-25T13:28:00;5.87;;;1.70;;
70457;SDS011;57919;56.194;95.716;2023-03-25T13:38:22;12.43;;;4.30;;
70457;SDS011;57919;56.194;95.716;2023-03-25T14:19:50;31.50;;;13.40;;
70457;SDS011;57919;56.194;95.716;2023-03-25T14:30:02;367.67;;;101.77;;
70457;SDS011;57919;56.194;95.716;2023-03-25T14:40:45;138.00;;;45.70;;
70457;SDS011;57919;56.194;95.716;2023-03-25T14:50:47;28.70;;;10.43;;
70457;SDS011;57919;56.194;95.716;2023-03-25T15:01:09;45.50;;;16.87;;
70457;SDS011;57919;56.194;95.716;2023-03-25T15:11:15;23.80;;;9.20;;
70457;SDS011;57919;56.194;95.716;2023-03-25T15:21:25;56.23;;;16.70;;
70457;SDS011;57919;56.194;95.716;2023-03-25T15:42:02;129.85;;;44.85;;
70457;SDS011;57919;56.194;95.716;2023-03-25T16:03:21;128.77;;;42.87;;
70457;SDS011;57919;56.194;95.716;2023-03-25T16:13:28;460.73;;;159.20;;
70457;SDS011;57919;56.194;95.716;2023-03-25T16:23:29;400.07;;;127.70;;
70457;SDS011;57919;56.194;95.716;2023-03-25T16:33:36;481.10;;;158.13;;
70457;SDS011;57919;56.194;95.716;2023-03-25T16:43:39;339.70;;;112.18;;
70457;SDS011;57919;56.194;95.716;2023-03-25T16:53:42;196.27;;;72.50;;
70457;SDS011;57919;56.194;95.716;2023-03-25T17:03:45;118.87;;;51.03;;
70457;SDS011;57919;56.194;95.716;2023-03-25T17:13:49;102.75;;;34.55;;
70457;SDS011;57919;56.194;95.716;2023-03-25T17:23:55;102.17;;;34.37;;
70457;SDS011;57919;56.194;95.716;2023-03-25T17:44:05;72.65;;;23.55;;
70457;SDS011;57919;56.194;95.716;2023-03-25T17:54:07;91.13;;;27.20;;
70457;SDS011;57919;56.194;95.716;2023-03-25T18:04:10;90.93;;;26.17;;
70457;SDS011;57919;56.194;95.716;2023-03-25T18:14:12;84.68;;;28.42;;
70457;SDS011;57919;56.194;95.716;2023-03-25T18:24:14;96.77;;;33.20;;
70457;SDS011;57919;56.194;95.716;2023-03-25T18:34:16;85.47;;;28.70;;
70457;SDS011;57919;56.194;95.716;2023-03-25T18:44:20;44.23;;;14.17;;
70457;SDS011;57919;56.194;95.716;2023-03-25T18:54:22;29.87;;;12.87;;
70457;SDS011;57919;56.194;95.716;2023-03-25T19:04:24;20.67;;;6.43;;
70457;SDS011;57919;56.194;95.716;2023-03-25T19:14:27;26.50;;;8.23;;
70457;SDS011;57919;56.194;95.716;2023-03-25T19:24:29;29.03;;;8.63;;
70457;SDS011;57919;56.194;95.716;2023-03-25T19:34:31;27.30;;;8.77;;
70457;SDS011;57919;56.194;95.716;2023-03-25T19:44:33;38.70;;;13.80;;
70457;SDS011;57919;56.194;95.716;2023-03-25T19:54:35;40.77;;;13.27;;
70457;SDS011;57919;56.194;95.716;2023-03-25T20:04:37;36.55;;;12.50;;
70457;SDS011;57919;56.194;95.716;2023-03-25T20:14:41;32.13;;;11.40;;
70457;SDS011;57919;56.194;95.716;2023-03-25T20:24:43;41.93;;;16.40;;
70457;SDS011;57919;56.194;95.716;2023-03-25T20:34:46;20.30;;;7.05;;
70457;SDS011;57919;56.194;95.716;2023-03-25T20:44:48;49.53;;;17.37;;
70457;SDS011;57919;56.194;95.716;2023-03-25T20:54:51;33.40;;;12.60;;
70457;SDS011;57919;56.194;95.716;2023-03-25T21:04:53;40.97;;;13.07;;
70457;SDS011;57919;56.194;95.716;2023-03-25T21:14:58;68.13;;;20.47;;
70457;SDS011;57919;56.194;95.716;2023-03-25T21:25:00;75.90;;;21.97;;
70457;SDS011;57919;56.194;95.716;2023-03-25T21:35:02;76.50;;;20.05;;
70457;SDS011;57919;56.194;95.716;2023-03-25T21:45:04;14.73;;;4.30;;
70457;SDS011;57919;56.194;95.716;2023-03-25T21:55:08;5.67;;;1.90;;
70457;SDS011;57919;56.194;95.716;2023-03-25T22:05:11;5.80;;;1.52;;
70457;SDS011;57919;56.194;95.716;2023-03-25T22:15:15;6.23;;;1.33;;
70457;SDS011;57919;56.194;95.716;2023-03-25T22:25:17;10.27;;;2.40;;
70457;SDS011;57919;56.194;95.716;2023-03-25T22:35:18;13.70;;;3.15;;
70457;SDS011;57919;56.194;95.716;2023-03-25T22:45:22;13.43;;;3.70;;
70457;SDS011;57919;56.194;95.716;2023-03-25T22:55:23;7.43;;;1.47;;
70457;SDS011;57919;56.194;95.716;2023-03-25T23:05:26;7.20;;;1.83;;
70457;SDS011;57919;56.194;95.716;2023-03-25T23:15:27;11.33;;;3.00;;
70457;SDS011;57919;56.194;95.716;2023-03-25T23:25:30;5.20;;;1.40;;
70457;SDS011;57919;56.194;95.716;2023-03-25T23:35:32;16.70;;;4.93;;
70457;SDS011;57919;56.194;95.716;2023-03-25T23:45:33;13.77;;;5.90;;
70457;SDS011;57919;56.194;95.716;2023-03-25T23:55:35;12.95;;;3.20;;
